sensor_id;sensor_type;location;lat;lon;timestamp;temperature;humidity
12817;DHT22;6473;51.552;6.716;2022-09-28T00:01:31;8.10;99.90
12817;DHT22;6473;51.552;6.716;2022-09-28T00:04:00;8.00;99.90
12817;DHT22;6473;51.552;6.716;2022-09-28T00:06:28;8.10;99.90
12817;DHT22;6473;51.552;6.716;2022-09-28T00:08:56;8.10;99.90
12817;DHT22;6473;51.552;6.716;2022-09-28T00:11:24;8.10;99.90
12817;DHT22;6473;51.552;6.716;2022-09-28T00:13:55;8.00;99.90
12817;DHT22;6473;51.552;6.716;2022-09-28T00:16:24;8.30;99.90
12817;DHT22;6473;51.552;6.716;2022-09-28T00:18:52;8.20;99.90
12817;DHT22;6473;51.552;6.716;2022-09-28T00:21:21;8.00;99.90
12817;DHT22;6473;51.552;6.716;2022-09-28T00:23:51;8.00;99.90
12817;DHT22;6473;51.552;6.716;2022-09-28T00:26:36;7.90;99.90
12817;DHT22;6473;51.552;6.716;2022-09-28T00:29:03;7.90;99.90
12817;DHT22;6473;51.552;6.716;2022-09-28T00:31:32;8.00;99.90
12817;DHT22;6473;51.552;6.716;2022-09-28T00:34:00;7.90;99.90
12817;DHT22;6473;51.552;6.716;2022-09-28T00:36:30;8.00;99.90
12817;DHT22;6473;51.552;6.716;2022-09-28T00:38:58;8.00;99.90
12817;DHT22;6473;51.552;6.716;2022-09-28T00:41:26;7.80;99.90
12817;DHT22;6473;51.552;6.716;2022-09-28T00:46:58;7.70;99.90
12817;DHT22;6473;51.552;6.716;2022-09-28T00:49:31;7.70;99.90
12817;DHT22;6473;51.552;6.716;2022-09-28T00:52:02;7.70;99.90
12817;DHT22;6473;51.552;6.716;2022-09-28T00:54:31;7.50;99.90
12817;DHT22;6473;51.552;6.716;2022-09-28T00:56:59;7.50;99.90
12817;DHT22;6473;51.552;6.716;2022-09-28T00:59:26;7.50;99.90
12817;DHT22;6473;51.552;6.716;2022-09-28T01:01:54;9.40;99.90
12817;DHT22;6473;51.552;6.716;2022-09-28T01:04:21;7.50;99.90
12817;DHT22;6473;51.552;6.716;2022-09-28T01:06:50;7.50;99.90
12817;DHT22;6473;51.552;6.716;2022-09-28T01:09:20;7.50;99.90
12817;DHT22;6473;51.552;6.716;2022-09-28T01:11:47;7.60;99.90
12817;DHT22;6473;51.552;6.716;2022-09-28T01:14:15;8.90;99.90
12817;DHT22;6473;51.552;6.716;2022-09-28T01:16:48;9.20;99.90
12817;DHT22;6473;51.552;6.716;2022-09-28T01:20:05;7.70;99.90
12817;DHT22;6473;51.552;6.716;2022-09-28T01:22:54;7.80;99.90
12817;DHT22;6473;51.552;6.716;2022-09-28T01:25:36;7.80;99.90
12817;DHT22;6473;51.552;6.716;2022-09-28T01:28:10;7.80;99.90
12817;DHT22;6473;51.552;6.716;2022-09-28T01:30:42;7.80;99.90
12817;DHT22;6473;51.552;6.716;2022-09-28T01:33:13;7.80;99.90
12817;DHT22;6473;51.552;6.716;2022-09-28T01:35:46;7.90;99.90
12817;DHT22;6473;51.552;6.716;2022-09-28T01:38:17;7.90;99.90
12817;DHT22;6473;51.552;6.716;2022-09-28T01:40:46;7.90;99.90
12817;DHT22;6473;51.552;6.716;2022-09-28T01:43:18;7.90;99.90
12817;DHT22;6473;51.552;6.716;2022-09-28T01:45:47;7.90;99.90
12817;DHT22;6473;51.552;6.716;2022-09-28T01:48:20;7.90;99.90
12817;DHT22;6473;51.552;6.716;2022-09-28T01:50:52;7.90;99.90
12817;DHT22;6473;51.552;6.716;2022-09-28T01:53:24;8.90;99.90
12817;DHT22;6473;51.552;6.716;2022-09-28T01:55:58;8.00;99.90
12817;DHT22;6473;51.552;6.716;2022-09-28T01:58:33;8.60;99.90
12817;DHT22;6473;51.552;6.716;2022-09-28T02:01:06;8.00;99.90
12817;DHT22;6473;51.552;6.716;2022-09-28T02:03:38;8.00;99.90
12817;DHT22;6473;51.552;6.716;2022-09-28T02:06:11;8.00;99.90
12817;DHT22;6473;51.552;6.716;2022-09-28T02:08:46;8.10;99.90
12817;DHT22;6473;51.552;6.716;2022-09-28T02:11:16;8.00;99.90
12817;DHT22;6473;51.552;6.716;2022-09-28T02:13:49;8.10;99.90
12817;DHT22;6473;51.552;6.716;2022-09-28T02:16:21;8.10;99.90
12817;DHT22;6473;51.552;6.716;2022-09-28T02:18:49;8.10;99.90
12817;DHT22;6473;51.552;6.716;2022-09-28T02:21:22;8.60;99.90
12817;DHT22;6473;51.552;6.716;2022-09-28T02:23:55;8.10;99.90
12817;DHT22;6473;51.552;6.716;2022-09-28T02:26:29;8.10;99.90
12817;DHT22;6473;51.552;6.716;2022-09-28T02:28:58;8.00;99.90
12817;DHT22;6473;51.552;6.716;2022-09-28T02:31:25;7.90;99.90
12817;DHT22;6473;51.552;6.716;2022-09-28T02:33:54;8.60;99.90
12817;DHT22;6473;51.552;6.716;2022-09-28T02:36:22;7.90;99.90
12817;DHT22;6473;51.552;6.716;2022-09-28T02:38:51;8.40;99.90
12817;DHT22;6473;51.552;6.716;2022-09-28T02:41:26;8.00;99.90
12817;DHT22;6473;51.552;6.716;2022-09-28T02:44:07;8.10;99.90
12817;DHT22;6473;51.552;6.716;2022-09-28T02:46:44;8.40;99.90
12817;DHT22;6473;51.552;6.716;2022-09-28T02:49:26;8.10;99.90
12817;DHT22;6473;51.552;6.716;2022-09-28T02:52:16;8.10;99.90
12817;DHT22;6473;51.552;6.716;2022-09-28T02:55:17;8.30;99.90
12817;DHT22;6473;51.552;6.716;2022-09-28T02:57:56;8.10;99.90
12817;DHT22;6473;51.552;6.716;2022-09-28T03:00:28;8.10;99.90
12817;DHT22;6473;51.552;6.716;2022-09-28T03:03:01;8.10;99.90
12817;DHT22;6473;51.552;6.716;2022-09-28T03:05:40;8.10;99.90
12817;DHT22;6473;51.552;6.716;2022-09-28T03:08:13;8.20;99.90
12817;DHT22;6473;51.552;6.716;2022-09-28T03:10:48;8.10;99.90
12817;DHT22;6473;51.552;6.716;2022-09-28T03:13:17;9.50;99.90
12817;DHT22;6473;51.552;6.716;2022-09-28T03:15:45;8.10;99.90
12817;DHT22;6473;51.552;6.716;2022-09-28T03:18:12;8.50;99.90
12817;DHT22;6473;51.552;6.716;2022-09-28T03:20:40;8.10;99.90
12817;DHT22;6473;51.552;6.716;2022-09-28T03:23:07;8.10;99.90
12817;DHT22;6473;51.552;6.716;2022-09-28T03:25:34;8.10;99.90
12817;DHT22;6473;51.552;6.716;2022-09-28T03:28:01;8.00;99.90
12817;DHT22;6473;51.552;6.716;2022-09-28T03:30:31;8.10;99.90
12817;DHT22;6473;51.552;6.716;2022-09-28T03:33:00;8.10;99.90
12817;DHT22;6473;51.552;6.716;2022-09-28T03:35:30;8.00;99.90
12817;DHT22;6473;51.552;6.716;2022-09-28T03:37:57;8.10;99.90
12817;DHT22;6473;51.552;6.716;2022-09-28T03:40:26;8.10;99.90
12817;DHT22;6473;51.552;6.716;2022-09-28T03:42:53;8.00;99.90
12817;DHT22;6473;51.552;6.716;2022-09-28T03:45:20;8.00;99.90
12817;DHT22;6473;51.552;6.716;2022-09-28T03:47:49;8.10;99.90
12817;DHT22;6473;51.552;6.716;2022-09-28T03:50:19;8.10;99.90
12817;DHT22;6473;51.552;6.716;2022-09-28T03:52:47;8.10;99.90
12817;DHT22;6473;51.552;6.716;2022-09-28T03:55:14;8.80;99.90
12817;DHT22;6473;51.552;6.716;2022-09-28T03:57:41;8.10;99.90
12817;DHT22;6473;51.552;6.716;2022-09-28T04:00:09;8.20;99.90
12817;DHT22;6473;51.552;6.716;2022-09-28T04:02:42;8.10;99.90
12817;DHT22;6473;51.552;6.716;2022-09-28T04:05:09;8.20;99.90
12817;DHT22;6473;51.552;6.716;2022-09-28T04:07:38;8.10;99.90
12817;DHT22;6473;51.552;6.716;2022-09-28T04:10:06;8.20;99.90
12817;DHT22;6473;51.552;6.716;2022-09-28T04:12:33;8.10;99.90
12817;DHT22;6473;51.552;6.716;2022-09-28T04:15:00;8.20;99.90
12817;DHT22;6473;51.552;6.716;2022-09-28T04:17:27;8.00;99.90
12817;DHT22;6473;51.552;6.716;2022-09-28T04:19:54;8.00;99.90
12817;DHT22;6473;51.552;6.716;2022-09-28T04:22:39;8.00;99.90
12817;DHT22;6473;51.552;6.716;2022-09-28T04:25:06;8.00;99.90
12817;DHT22;6473;51.552;6.716;2022-09-28T04:27:33;8.00;99.90
12817;DHT22;6473;51.552;6.716;2022-09-28T04:30:18;7.90;99.90
12817;DHT22;6473;51.552;6.716;2022-09-28T04:32:45;7.90;99.90
12817;DHT22;6473;51.552;6.716;2022-09-28T04:35:13;7.90;99.90
12817;DHT22;6473;51.552;6.716;2022-09-28T04:37:41;8.00;99.90
12817;DHT22;6473;51.552;6.716;2022-09-28T04:40:09;8.00;99.90
12817;DHT22;6473;51.552;6.716;2022-09-28T04:42:37;8.00;99.90
12817;DHT22;6473;51.552;6.716;2022-09-28T04:45:04;8.00;99.90
12817;DHT22;6473;51.552;6.716;2022-09-28T04:47:36;8.00;99.90
12817;DHT22;6473;51.552;6.716;2022-09-28T04:50:15;8.00;99.90
12817;DHT22;6473;51.552;6.716;2022-09-28T04:53:12;8.30;99.90
12817;DHT22;6473;51.552;6.716;2022-09-28T04:55:39;8.00;99.90
12817;DHT22;6473;51.552;6.716;2022-09-28T04:58:06;8.00;99.90
12817;DHT22;6473;51.552;6.716;2022-09-28T05:00:33;8.00;99.90
12817;DHT22;6473;51.552;6.716;2022-09-28T05:03:09;8.00;99.90
12817;DHT22;6473;51.552;6.716;2022-09-28T05:05:55;8.00;99.90
12817;DHT22;6473;51.552;6.716;2022-09-28T05:08:38;8.20;99.90
12817;DHT22;6473;51.552;6.716;2022-09-28T05:11:07;8.00;99.90
12817;DHT22;6473;51.552;6.716;2022-09-28T05:13:38;8.00;99.90
12817;DHT22;6473;51.552;6.716;2022-09-28T05:16:07;8.00;99.90
12817;DHT22;6473;51.552;6.716;2022-09-28T05:18:44;8.00;99.90
12817;DHT22;6473;51.552;6.716;2022-09-28T05:21:13;8.10;99.90
12817;DHT22;6473;51.552;6.716;2022-09-28T05:23:45;8.00;99.90
12817;DHT22;6473;51.552;6.716;2022-09-28T05:26:12;8.00;99.90
12817;DHT22;6473;51.552;6.716;2022-09-28T05:28:39;8.00;99.90
12817;DHT22;6473;51.552;6.716;2022-09-28T05:31:25;8.00;99.90
12817;DHT22;6473;51.552;6.716;2022-09-28T05:34:15;8.00;99.90
12817;DHT22;6473;51.552;6.716;2022-09-28T05:36:43;8.10;99.90
12817;DHT22;6473;51.552;6.716;2022-09-28T05:39:12;8.10;99.90
12817;DHT22;6473;51.552;6.716;2022-09-28T05:41:38;8.20;99.90
12817;DHT22;6473;51.552;6.716;2022-09-28T05:44:05;8.10;99.90
12817;DHT22;6473;51.552;6.716;2022-09-28T05:46:33;8.10;99.90
12817;DHT22;6473;51.552;6.716;2022-09-28T05:49:01;8.10;99.90
12817;DHT22;6473;51.552;6.716;2022-09-28T05:51:28;8.10;99.90
12817;DHT22;6473;51.552;6.716;2022-09-28T05:53:55;8.10;99.90
12817;DHT22;6473;51.552;6.716;2022-09-28T05:56:28;8.10;99.90
12817;DHT22;6473;51.552;6.716;2022-09-28T05:58:56;8.20;99.90
12817;DHT22;6473;51.552;6.716;2022-09-28T06:01:25;8.20;99.90
12817;DHT22;6473;51.552;6.716;2022-09-28T06:03:53;8.20;99.90
12817;DHT22;6473;51.552;6.716;2022-09-28T06:06:20;8.30;99.90
12817;DHT22;6473;51.552;6.716;2022-09-28T06:08:48;8.30;99.90
12817;DHT22;6473;51.552;6.716;2022-09-28T06:11:45;8.30;99.90
12817;DHT22;6473;51.552;6.716;2022-09-28T06:14:39;8.30;99.90
12817;DHT22;6473;51.552;6.716;2022-09-28T06:17:06;8.50;99.90
12817;DHT22;6473;51.552;6.716;2022-09-28T06:19:32;8.40;99.90
12817;DHT22;6473;51.552;6.716;2022-09-28T06:22:15;8.40;99.90
12817;DHT22;6473;51.552;6.716;2022-09-28T06:24:55;8.40;99.90
12817;DHT22;6473;51.552;6.716;2022-09-28T06:27:25;8.40;99.90
12817;DHT22;6473;51.552;6.716;2022-09-28T06:29:52;8.60;99.90
12817;DHT22;6473;51.552;6.716;2022-09-28T06:32:18;8.40;99.90
12817;DHT22;6473;51.552;6.716;2022-09-28T06:34:48;8.40;99.90
12817;DHT22;6473;51.552;6.716;2022-09-28T06:37:14;8.50;99.90
12817;DHT22;6473;51.552;6.716;2022-09-28T06:39:41;8.40;99.90
12817;DHT22;6473;51.552;6.716;2022-09-28T06:42:08;8.40;99.90
12817;DHT22;6473;51.552;6.716;2022-09-28T06:44:55;8.50;99.90
12817;DHT22;6473;51.552;6.716;2022-09-28T06:47:41;8.50;99.90
12817;DHT22;6473;51.552;6.716;2022-09-28T06:50:30;8.40;99.90
12817;DHT22;6473;51.552;6.716;2022-09-28T06:53:13;8.50;99.90
12817;DHT22;6473;51.552;6.716;2022-09-28T06:55:49;8.50;99.90
12817;DHT22;6473;51.552;6.716;2022-09-28T06:58:18;8.50;99.90
12817;DHT22;6473;51.552;6.716;2022-09-28T07:00:49;8.50;99.90
12817;DHT22;6473;51.552;6.716;2022-09-28T07:03:18;8.50;99.90
12817;DHT22;6473;51.552;6.716;2022-09-28T07:05:58;8.60;99.90
12817;DHT22;6473;51.552;6.716;2022-09-28T07:08:44;8.80;99.90
12817;DHT22;6473;51.552;6.716;2022-09-28T07:11:36;8.70;99.90
12817;DHT22;6473;51.552;6.716;2022-09-28T07:14:23;8.70;99.90
12817;DHT22;6473;51.552;6.716;2022-09-28T07:16:53;8.70;99.90
12817;DHT22;6473;51.552;6.716;2022-09-28T07:19:21;8.80;99.90
12817;DHT22;6473;51.552;6.716;2022-09-28T07:21:50;8.80;99.90
12817;DHT22;6473;51.552;6.716;2022-09-28T07:24:17;8.80;99.90
12817;DHT22;6473;51.552;6.716;2022-09-28T07:27:16;8.80;99.90
12817;DHT22;6473;51.552;6.716;2022-09-28T07:30:05;8.80;99.90
12817;DHT22;6473;51.552;6.716;2022-09-28T07:32:44;8.90;99.90
12817;DHT22;6473;51.552;6.716;2022-09-28T07:35:21;8.80;99.90
12817;DHT22;6473;51.552;6.716;2022-09-28T07:37:56;8.90;99.90
12817;DHT22;6473;51.552;6.716;2022-09-28T07:40:25;8.90;99.90
12817;DHT22;6473;51.552;6.716;2022-09-28T07:43:09;9.00;99.90
12817;DHT22;6473;51.552;6.716;2022-09-28T07:45:37;9.00;99.90
12817;DHT22;6473;51.552;6.716;2022-09-28T07:48:05;9.00;99.90
12817;DHT22;6473;51.552;6.716;2022-09-28T07:50:47;9.00;99.90
12817;DHT22;6473;51.552;6.716;2022-09-28T07:53:30;9.00;99.90
12817;DHT22;6473;51.552;6.716;2022-09-28T07:56:16;9.10;99.90
12817;DHT22;6473;51.552;6.716;2022-09-28T07:59:07;9.10;99.90
12817;DHT22;6473;51.552;6.716;2022-09-28T08:01:53;9.10;99.90
12817;DHT22;6473;51.552;6.716;2022-09-28T08:04:21;9.10;99.90
12817;DHT22;6473;51.552;6.716;2022-09-28T08:06:50;9.10;99.90
12817;DHT22;6473;51.552;6.716;2022-09-28T08:09:17;9.20;99.90
12817;DHT22;6473;51.552;6.716;2022-09-28T08:12:07;9.30;99.90
12817;DHT22;6473;51.552;6.716;2022-09-28T08:14:41;9.30;99.90
12817;DHT22;6473;51.552;6.716;2022-09-28T08:17:28;9.50;99.90
12817;DHT22;6473;51.552;6.716;2022-09-28T08:19:59;9.40;99.90
12817;DHT22;6473;51.552;6.716;2022-09-28T08:22:45;9.50;99.90
12817;DHT22;6473;51.552;6.716;2022-09-28T08:25:12;9.60;99.90
12817;DHT22;6473;51.552;6.716;2022-09-28T08:27:39;9.70;99.90
12817;DHT22;6473;51.552;6.716;2022-09-28T08:30:07;9.80;99.90
12817;DHT22;6473;51.552;6.716;2022-09-28T08:32:50;9.90;99.90
12817;DHT22;6473;51.552;6.716;2022-09-28T08:35:39;10.10;99.90
12817;DHT22;6473;51.552;6.716;2022-09-28T08:38:27;10.20;99.90
12817;DHT22;6473;51.552;6.716;2022-09-28T08:41:02;10.50;99.90
12817;DHT22;6473;51.552;6.716;2022-09-28T08:43:59;10.60;99.90
12817;DHT22;6473;51.552;6.716;2022-09-28T08:46:49;10.80;99.90
12817;DHT22;6473;51.552;6.716;2022-09-28T08:49:43;10.80;99.90
12817;DHT22;6473;51.552;6.716;2022-09-28T08:52:37;10.70;99.90
12817;DHT22;6473;51.552;6.716;2022-09-28T08:55:29;10.60;99.90
12817;DHT22;6473;51.552;6.716;2022-09-28T08:58:03;10.50;99.90
12817;DHT22;6473;51.552;6.716;2022-09-28T09:00:37;10.50;99.90
12817;DHT22;6473;51.552;6.716;2022-09-28T09:03:10;10.50;99.90
12817;DHT22;6473;51.552;6.716;2022-09-28T09:05:50;10.50;99.90
12817;DHT22;6473;51.552;6.716;2022-09-28T09:08:49;10.60;99.90
12817;DHT22;6473;51.552;6.716;2022-09-28T09:11:33;10.80;99.90
12817;DHT22;6473;51.552;6.716;2022-09-28T09:14:19;11.10;99.90
12817;DHT22;6473;51.552;6.716;2022-09-28T09:17:00;11.20;99.90
12817;DHT22;6473;51.552;6.716;2022-09-28T09:19:52;11.20;99.90
12817;DHT22;6473;51.552;6.716;2022-09-28T09:22:46;11.50;99.90
12817;DHT22;6473;51.552;6.716;2022-09-28T09:25:19;11.80;99.90
12817;DHT22;6473;51.552;6.716;2022-09-28T09:28:04;12.00;99.90
12817;DHT22;6473;51.552;6.716;2022-09-28T09:30:41;12.00;99.90
12817;DHT22;6473;51.552;6.716;2022-09-28T09:36:50;12.70;99.90
12817;DHT22;6473;51.552;6.716;2022-09-28T09:39:47;12.50;99.90
12817;DHT22;6473;51.552;6.716;2022-09-28T09:42:49;12.50;99.90
12817;DHT22;6473;51.552;6.716;2022-09-28T09:45:58;12.70;99.90
12817;DHT22;6473;51.552;6.716;2022-09-28T09:48:39;12.80;99.90
12817;DHT22;6473;51.552;6.716;2022-09-28T09:51:18;13.00;99.90
12817;DHT22;6473;51.552;6.716;2022-09-28T09:53:48;13.30;99.90
12817;DHT22;6473;51.552;6.716;2022-09-28T09:56:21;13.30;99.90
12817;DHT22;6473;51.552;6.716;2022-09-28T09:59:09;13.50;99.90
12817;DHT22;6473;51.552;6.716;2022-09-28T10:01:55;13.50;99.90
12817;DHT22;6473;51.552;6.716;2022-09-28T10:04:36;13.40;99.90
12817;DHT22;6473;51.552;6.716;2022-09-28T10:07:20;13.50;99.90
12817;DHT22;6473;51.552;6.716;2022-09-28T10:09:48;13.10;99.90
12817;DHT22;6473;51.552;6.716;2022-09-28T10:12:40;13.10;99.90
12817;DHT22;6473;51.552;6.716;2022-09-28T10:15:15;13.20;99.90
12817;DHT22;6473;51.552;6.716;2022-09-28T10:17:54;13.50;99.90
12817;DHT22;6473;51.552;6.716;2022-09-28T10:20:42;14.10;99.90
12817;DHT22;6473;51.552;6.716;2022-09-28T10:23:21;14.50;89.00
12817;DHT22;6473;51.552;6.716;2022-09-28T10:25:55;14.50;92.90
12817;DHT22;6473;51.552;6.716;2022-09-28T10:28:34;14.40;96.30
12817;DHT22;6473;51.552;6.716;2022-09-28T10:31:34;15.00;98.10
12817;DHT22;6473;51.552;6.716;2022-09-28T10:34:03;15.60;93.60
12817;DHT22;6473;51.552;6.716;2022-09-28T10:36:30;15.60;93.80
12817;DHT22;6473;51.552;6.716;2022-09-28T10:39:04;16.40;51.60
12817;DHT22;6473;51.552;6.716;2022-09-28T10:41:32;16.60;56.70
12817;DHT22;6473;51.552;6.716;2022-09-28T10:44:05;17.20;51.90
12817;DHT22;6473;51.552;6.716;2022-09-28T10:47:01;17.30;37.40
12817;DHT22;6473;51.552;6.716;2022-09-28T10:49:40;16.80;38.60
12817;DHT22;6473;51.552;6.716;2022-09-28T10:52:29;16.40;46.20
12817;DHT22;6473;51.552;6.716;2022-09-28T10:54:56;15.90;54.60
12817;DHT22;6473;51.552;6.716;2022-09-28T10:57:27;15.90;55.60
12817;DHT22;6473;51.552;6.716;2022-09-28T10:59:59;15.30;55.90
12817;DHT22;6473;51.552;6.716;2022-09-28T11:02:36;14.80;63.80
12817;DHT22;6473;51.552;6.716;2022-09-28T11:05:19;14.50;72.60
12817;DHT22;6473;51.552;6.716;2022-09-28T11:07:47;14.60;73.50
12817;DHT22;6473;51.552;6.716;2022-09-28T11:10:26;14.30;83.90
12817;DHT22;6473;51.552;6.716;2022-09-28T11:13:00;14.20;87.90
12817;DHT22;6473;51.552;6.716;2022-09-28T11:15:30;14.20;90.10
12817;DHT22;6473;51.552;6.716;2022-09-28T11:21:08;14.00;96.40
12817;DHT22;6473;51.552;6.716;2022-09-28T11:23:35;13.90;96.10
12817;DHT22;6473;51.552;6.716;2022-09-28T11:26:15;14.20;90.50
12817;DHT22;6473;51.552;6.716;2022-09-28T11:28:49;14.20;92.90
12817;DHT22;6473;51.552;6.716;2022-09-28T11:31:25;14.50;90.10
12817;DHT22;6473;51.552;6.716;2022-09-28T11:34:05;14.40;74.60
12817;DHT22;6473;51.552;6.716;2022-09-28T11:39:42;14.30;81.80
12817;DHT22;6473;51.552;6.716;2022-09-28T11:42:23;14.30;80.00
12817;DHT22;6473;51.552;6.716;2022-09-28T11:45:00;14.10;87.10
12817;DHT22;6473;51.552;6.716;2022-09-28T11:47:48;14.10;93.20
12817;DHT22;6473;51.552;6.716;2022-09-28T11:50:26;14.00;90.90
12817;DHT22;6473;51.552;6.716;2022-09-28T11:53:03;14.00;92.10
12817;DHT22;6473;51.552;6.716;2022-09-28T11:55:38;14.10;92.60
12817;DHT22;6473;51.552;6.716;2022-09-28T11:58:11;14.20;91.60
12817;DHT22;6473;51.552;6.716;2022-09-28T12:00:44;14.50;92.90
12817;DHT22;6473;51.552;6.716;2022-09-28T12:03:22;14.90;89.40
12817;DHT22;6473;51.552;6.716;2022-09-28T12:05:55;14.90;77.40
12817;DHT22;6473;51.552;6.716;2022-09-28T12:08:26;15.10;67.40
12817;DHT22;6473;51.552;6.716;2022-09-28T12:11:07;15.00;75.00
12817;DHT22;6473;51.552;6.716;2022-09-28T12:13:57;15.20;66.80
12817;DHT22;6473;51.552;6.716;2022-09-28T12:16:29;14.90;63.10
12817;DHT22;6473;51.552;6.716;2022-09-28T12:19:00;14.90;71.10
12817;DHT22;6473;51.552;6.716;2022-09-28T12:21:33;14.80;71.20
12817;DHT22;6473;51.552;6.716;2022-09-28T12:24:09;14.60;76.00
12817;DHT22;6473;51.552;6.716;2022-09-28T12:26:42;14.60;78.70
12817;DHT22;6473;51.552;6.716;2022-09-28T12:29:12;14.70;69.30
12817;DHT22;6473;51.552;6.716;2022-09-28T12:31:50;14.60;75.50
12817;DHT22;6473;51.552;6.716;2022-09-28T12:36:54;15.50;60.70
12817;DHT22;6473;51.552;6.716;2022-09-28T12:39:43;16.50;47.50
12817;DHT22;6473;51.552;6.716;2022-09-28T12:42:20;17.40;32.20
12817;DHT22;6473;51.552;6.716;2022-09-28T12:45:02;18.50;23.20
12817;DHT22;6473;51.552;6.716;2022-09-28T12:47:52;18.50;18.00
12817;DHT22;6473;51.552;6.716;2022-09-28T12:50:31;17.90;18.20
12817;DHT22;6473;51.552;6.716;2022-09-28T12:53:18;17.40;20.60
12817;DHT22;6473;51.552;6.716;2022-09-28T12:55:58;13.10;20.20
12817;DHT22;6473;51.552;6.716;2022-09-28T12:58:45;16.90;25.10
12817;DHT22;6473;51.552;6.716;2022-09-28T13:01:27;16.90;24.90
12817;DHT22;6473;51.552;6.716;2022-09-28T13:04:23;16.70;26.50
12817;DHT22;6473;51.552;6.716;2022-09-28T13:06:59;16.20;26.80
12817;DHT22;6473;51.552;6.716;2022-09-28T13:09:35;15.70;27.10
12817;DHT22;6473;51.552;6.716;2022-09-28T13:12:27;15.60;32.50
12817;DHT22;6473;51.552;6.716;2022-09-28T13:18:07;15.30;29.40
12817;DHT22;6473;51.552;6.716;2022-09-28T13:20:48;15.50;34.90
12817;DHT22;6473;51.552;6.716;2022-09-28T13:23:20;15.60;37.30
12817;DHT22;6473;51.552;6.716;2022-09-28T13:25:52;15.60;38.70
12817;DHT22;6473;51.552;6.716;2022-09-28T13:28:23;15.40;40.00
12817;DHT22;6473;51.552;6.716;2022-09-28T13:30:52;15.10;47.80
12817;DHT22;6473;51.552;6.716;2022-09-28T13:33:25;15.00;62.60
12817;DHT22;6473;51.552;6.716;2022-09-28T13:35:55;14.70;64.30
12817;DHT22;6473;51.552;6.716;2022-09-28T13:38:52;14.00;87.10
12817;DHT22;6473;51.552;6.716;2022-09-28T13:41:25;14.20;99.90
12817;DHT22;6473;51.552;6.716;2022-09-28T13:44:29;13.90;99.90
12817;DHT22;6473;51.552;6.716;2022-09-28T13:47:17;13.50;99.90
12817;DHT22;6473;51.552;6.716;2022-09-28T13:49:58;13.20;99.90
12817;DHT22;6473;51.552;6.716;2022-09-28T13:52:36;12.80;99.90
12817;DHT22;6473;51.552;6.716;2022-09-28T13:55:21;12.80;99.90
12817;DHT22;6473;51.552;6.716;2022-09-28T13:57:54;12.60;99.90
12817;DHT22;6473;51.552;6.716;2022-09-28T14:00:27;12.40;99.90
12817;DHT22;6473;51.552;6.716;2022-09-28T14:02:57;12.20;99.90
12817;DHT22;6473;51.552;6.716;2022-09-28T14:05:49;11.80;99.90
12817;DHT22;6473;51.552;6.716;2022-09-28T14:08:26;11.80;99.90
12817;DHT22;6473;51.552;6.716;2022-09-28T14:10:54;11.90;99.90
12817;DHT22;6473;51.552;6.716;2022-09-28T14:14:00;11.80;99.90
12817;DHT22;6473;51.552;6.716;2022-09-28T14:16:30;11.40;99.90
12817;DHT22;6473;51.552;6.716;2022-09-28T14:19:01;11.30;99.90
12817;DHT22;6473;51.552;6.716;2022-09-28T14:22:00;11.40;99.90
12817;DHT22;6473;51.552;6.716;2022-09-28T14:24:42;11.30;99.90
12817;DHT22;6473;51.552;6.716;2022-09-28T14:27:47;11.30;99.90
12817;DHT22;6473;51.552;6.716;2022-09-28T14:30:22;11.40;99.90
12817;DHT22;6473;51.552;6.716;2022-09-28T14:32:55;11.50;99.90
12817;DHT22;6473;51.552;6.716;2022-09-28T14:35:27;11.60;99.90
12817;DHT22;6473;51.552;6.716;2022-09-28T14:37:59;11.60;99.90
12817;DHT22;6473;51.552;6.716;2022-09-28T14:40:58;11.50;99.90
12817;DHT22;6473;51.552;6.716;2022-09-28T14:43:58;11.50;99.90
12817;DHT22;6473;51.552;6.716;2022-09-28T14:46:36;11.40;99.90
12817;DHT22;6473;51.552;6.716;2022-09-28T14:52:38;11.50;99.90
12817;DHT22;6473;51.552;6.716;2022-09-28T14:55:12;11.50;99.90
12817;DHT22;6473;51.552;6.716;2022-09-28T14:57:40;11.40;99.90
12817;DHT22;6473;51.552;6.716;2022-09-28T15:00:15;11.40;99.90
12817;DHT22;6473;51.552;6.716;2022-09-28T15:02:48;11.40;99.90
12817;DHT22;6473;51.552;6.716;2022-09-28T15:05:21;11.30;99.90
12817;DHT22;6473;51.552;6.716;2022-09-28T15:07:51;11.30;99.90
12817;DHT22;6473;51.552;6.716;2022-09-28T15:10:29;11.20;99.90
12817;DHT22;6473;51.552;6.716;2022-09-28T15:12:58;11.30;99.90
12817;DHT22;6473;51.552;6.716;2022-09-28T15:15:31;11.40;99.90
12817;DHT22;6473;51.552;6.716;2022-09-28T15:18:13;11.50;99.90
12817;DHT22;6473;51.552;6.716;2022-09-28T15:20:45;11.60;99.90
12817;DHT22;6473;51.552;6.716;2022-09-28T15:23:26;11.60;99.90
12817;DHT22;6473;51.552;6.716;2022-09-28T15:25:59;11.80;99.90
12817;DHT22;6473;51.552;6.716;2022-09-28T15:28:26;11.60;99.90
12817;DHT22;6473;51.552;6.716;2022-09-28T15:30:59;11.60;99.90
12817;DHT22;6473;51.552;6.716;2022-09-28T15:33:28;11.70;99.90
12817;DHT22;6473;51.552;6.716;2022-09-28T15:36:16;11.80;99.90
12817;DHT22;6473;51.552;6.716;2022-09-28T15:38:54;11.70;99.90
12817;DHT22;6473;51.552;6.716;2022-09-28T15:41:23;11.70;99.90
12817;DHT22;6473;51.552;6.716;2022-09-28T15:44:29;11.60;99.90
12817;DHT22;6473;51.552;6.716;2022-09-28T15:47:08;11.50;99.90
12817;DHT22;6473;51.552;6.716;2022-09-28T15:49:40;11.50;99.90
12817;DHT22;6473;51.552;6.716;2022-09-28T15:52:22;11.40;99.90
12817;DHT22;6473;51.552;6.716;2022-09-28T15:54:52;11.40;99.90
12817;DHT22;6473;51.552;6.716;2022-09-28T15:57:28;11.40;99.90
12817;DHT22;6473;51.552;6.716;2022-09-28T15:59:58;11.30;99.90
12817;DHT22;6473;51.552;6.716;2022-09-28T16:02:26;11.30;99.90
12817;DHT22;6473;51.552;6.716;2022-09-28T16:04:54;11.30;99.90
12817;DHT22;6473;51.552;6.716;2022-09-28T16:07:26;11.20;99.90
12817;DHT22;6473;51.552;6.716;2022-09-28T16:10:29;11.20;99.90
12817;DHT22;6473;51.552;6.716;2022-09-28T16:13:08;11.10;99.90
12817;DHT22;6473;51.552;6.716;2022-09-28T16:15:37;11.20;99.90
12817;DHT22;6473;51.552;6.716;2022-09-28T16:18:18;11.20;99.90
12817;DHT22;6473;51.552;6.716;2022-09-28T16:20:48;11.10;99.90
12817;DHT22;6473;51.552;6.716;2022-09-28T16:23:27;11.00;99.90
12817;DHT22;6473;51.552;6.716;2022-09-28T16:25:59;11.00;99.90
12817;DHT22;6473;51.552;6.716;2022-09-28T16:28:45;10.90;99.90
12817;DHT22;6473;51.552;6.716;2022-09-28T16:31:25;10.80;99.90
12817;DHT22;6473;51.552;6.716;2022-09-28T16:33:54;10.80;99.90
12817;DHT22;6473;51.552;6.716;2022-09-28T16:36:25;10.80;99.90
12817;DHT22;6473;51.552;6.716;2022-09-28T16:38:54;10.70;99.90
12817;DHT22;6473;51.552;6.716;2022-09-28T16:41:24;10.70;99.90
12817;DHT22;6473;51.552;6.716;2022-09-28T16:43:56;10.70;99.90
12817;DHT22;6473;51.552;6.716;2022-09-28T16:46:30;10.70;99.90
12817;DHT22;6473;51.552;6.716;2022-09-28T16:48:58;10.70;99.90
12817;DHT22;6473;51.552;6.716;2022-09-28T16:51:28;10.50;99.90
12817;DHT22;6473;51.552;6.716;2022-09-28T16:53:58;10.40;99.90
12817;DHT22;6473;51.552;6.716;2022-09-28T16:56:45;10.40;99.90
12817;DHT22;6473;51.552;6.716;2022-09-28T16:59:12;10.40;99.90
12817;DHT22;6473;51.552;6.716;2022-09-28T17:01:38;10.20;99.90
12817;DHT22;6473;51.552;6.716;2022-09-28T17:04:08;10.20;99.90
12817;DHT22;6473;51.552;6.716;2022-09-28T17:06:35;10.20;99.90
12817;DHT22;6473;51.552;6.716;2022-09-28T17:09:03;10.10;99.90
12817;DHT22;6473;51.552;6.716;2022-09-28T17:11:32;10.10;99.90